Time;durP1;ratioP1;P1;durP2;ratioP2;P2;SDS_P1;SDS_P2;PMS_P1;PMS_P2;Temp;Humidity;BMP_temperature;BMP_pressure;BME280_temperature;BME280_humidity;BME280_pressure;Samples;Min_cycle;Max_cycle;Signal;HPM_P1;HPM_P2
2023/01/23 00:00:55;;;;;;;23.27;14.18;;;;;;;2.61;92.53;103425.88;4993398;28;20034;-65
2023/01/23 00:03:20;;;;;;;23.90;13.70;;;;;;;2.63;92.58;103426.00;4994243;28;20038;-65
2023/01/23 00:05:59;;;;;;;22.48;13.85;;;;;;;2.62;92.64;103419.88;4994039;28;20034;-65
2023/01/23 00:08:24;;;;;;;22.30;13.07;;;;;;;2.65;92.54;103421.81;4994325;28;20034;-64
2023/01/23 00:10:50;;;;;;;25.33;14.18;;;;;;;2.64;92.88;103417.38;4994000;28;20641;-65
2023/01/23 00:13:16;;;;;;;24.85;13.98;;;;;;;2.60;92.56;103403.16;4993864;28;20030;-65
2023/01/23 00:15:41;;;;;;;26.67;14.48;;;;;;;2.56;92.91;103414.13;4994064;28;20038;-65
2023/01/23 00:18:07;;;;;;;24.23;14.20;;;;;;;2.55;92.69;103408.78;4976375;28;20044;-65
2023/01/23 00:20:32;;;;;;;20.23;13.02;;;;;;;2.58;93.04;103411.66;4993688;28;20058;-65
2023/01/23 00:22:57;;;;;;;26.08;14.50;;;;;;;2.62;93.12;103417.28;4993571;28;20027;-65
2023/01/23 00:25:23;;;;;;;24.60;14.02;;;;;;;2.62;92.93;103413.75;4993789;28;20030;-65
2023/01/23 00:27:48;;;;;;;27.48;14.80;;;;;;;2.60;92.74;103417.91;4993753;28;20030;-65
2023/01/23 00:30:14;;;;;;;21.73;13.98;;;;;;;2.59;92.87;103422.22;4993728;28;20058;-65
2023/01/23 00:32:40;;;;;;;25.00;13.57;;;;;;;2.59;92.98;103427.44;4993525;28;20077;-65
2023/01/23 00:35:06;;;;;;;28.00;14.27;;;;;;;2.58;92.85;103420.41;4993630;28;20096;-65
2023/01/23 00:37:31;;;;;;;22.35;14.30;;;;;;;2.55;92.59;103435.78;4993792;28;20494;-64
2023/01/23 00:39:57;;;;;;;23.83;13.65;;;;;;;2.52;92.80;103430.31;4976099;28;20398;-65
2023/01/23 00:42:22;;;;;;;24.88;13.70;;;;;;;2.54;93.47;103436.59;4993755;28;20081;-65
2023/01/23 00:44:47;;;;;;;20.90;12.80;;;;;;;2.57;93.42;103447.28;4976225;28;20530;-65
2023/01/23 00:47:13;;;;;;;23.85;13.48;;;;;;;2.59;93.35;103439.59;4993549;28;20031;-65
2023/01/23 00:49:38;;;;;;;27.70;13.50;;;;;;;2.62;93.05;103448.59;4993523;28;20464;-64
2023/01/23 00:52:03;;;;;;;22.45;13.68;;;;;;;2.62;93.19;103448.59;4993180;28;20046;-65
2023/01/23 00:54:29;;;;;;;24.35;13.52;;;;;;;2.62;93.41;103443.38;4993531;28;20109;-64
2023/01/23 00:56:56;;;;;;;21.65;13.05;;;;;;;2.62;93.41;103439.84;4993520;28;20113;-65
2023/01/23 00:59:21;;;;;;;24.55;13.07;;;;;;;2.60;93.15;103436.19;4993402;28;20041;-65
2023/01/23 01:01:47;;;;;;;24.85;14.13;;;;;;;2.57;93.17;103434.25;4993411;28;20026;-65
2023/01/23 01:04:12;;;;;;;24.20;13.68;;;;;;;2.59;93.35;103432.66;4993283;28;20113;-65
2023/01/23 01:06:37;;;;;;;24.90;13.80;;;;;;;2.55;93.51;103443.63;4993260;28;20027;-64
2023/01/23 01:09:03;;;;;;;24.20;12.93;;;;;;;2.57;93.52;103442.06;4993274;28;20546;-64
2023/01/23 01:11:29;;;;;;;23.58;13.40;;;;;;;2.58;93.89;103433.44;4993583;28;20034;-65
2023/01/23 01:13:54;;;;;;;23.23;13.02;;;;;;;2.60;93.75;103441.41;4993310;28;20467;-64
2023/01/23 01:16:20;;;;;;;26.17;13.25;;;;;;;2.59;93.59;103440.50;4993555;28;20109;-65
2023/01/23 01:18:45;;;;;;;24.42;14.00;;;;;;;2.59;93.72;103434.38;4993210;28;20111;-65
2023/01/23 01:21:13;;;;;;;25.25;13.38;;;;;;;2.58;94.12;103432.53;4993437;28;20062;-65
2023/01/23 01:23:39;;;;;;;22.10;12.70;;;;;;;2.57;93.79;103436.84;4992932;28;20475;-64
2023/01/23 01:26:05;;;;;;;21.77;12.95;;;;;;;2.64;94.17;103433.97;4993344;28;20075;-65
2023/01/23 01:28:33;;;;;;;23.83;13.27;;;;;;;2.66;93.50;103444.56;4997255;28;20057;-65
2023/01/23 01:31:04;;;;;;;25.58;14.13;;;;;;;2.67;93.35;103444.66;4996812;28;20044;-65
2023/01/23 01:33:30;;;;;;;24.15;12.90;;;;;;;2.63;93.53;103447.81;4997171;28;20049;-64
2023/01/23 01:35:55;;;;;;;25.48;13.77;;;;;;;2.60;94.01;103447.53;4996953;28;20057;-65
2023/01/23 01:38:22;;;;;;;24.77;13.13;;;;;;;2.61;93.98;103454.59;4996762;28;20031;-65
2023/01/23 01:40:47;;;;;;;23.63;13.50;;;;;;;2.60;93.88;103460.59;4996668;28;20030;-64
2023/01/23 01:43:22;;;;;;;24.00;13.23;;;;;;;2.59;93.82;103457.84;4996675;28;20114;-65
2023/01/23 01:46:09;;;;;;;24.80;13.57;;;;;;;2.56;93.92;103457.59;4996608;28;20431;-65
2023/01/23 01:48:57;;;;;;;23.10;13.20;;;;;;;2.50;94.01;103460.59;4996592;28;20063;-65
2023/01/23 01:51:54;;;;;;;30.67;14.00;;;;;;;2.51;94.57;103460.72;4996286;28;20065;-64
2023/01/23 01:54:25;;;;;;;22.05;12.77;;;;;;;2.50;94.23;103456.28;4996472;28;20530;-65
2023/01/23 01:56:53;;;;;;;23.23;12.65;;;;;;;2.50;94.22;103457.97;4996393;28;20038;-65
2023/01/23 01:59:21;;;;;;;25.25;13.32;;;;;;;2.50;94.31;103457.97;4996564;28;20061;-65
2023/01/23 02:01:52;;;;;;;22.35;12.65;;;;;;;2.52;94.57;103453.78;4996193;28;20118;-65
2023/01/23 02:04:18;;;;;;;20.90;12.75;;;;;;;2.54;94.07;103446.13;4996503;28;20110;-65
2023/01/23 02:06:44;;;;;;;23.67;13.55;;;;;;;2.54;94.46;103454.84;4996370;28;20109;-65
2023/01/23 02:09:18;;;;;;;24.10;13.80;;;;;;;2.53;94.28;103450.44;4996184;28;20026;-65
2023/01/23 02:11:44;;;;;;;27.17;13.35;;;;;;;2.52;94.28;103448.56;4996184;28;20030;-65
2023/01/23 02:14:10;;;;;;;22.88;12.85;;;;;;;2.53;94.14;103447.81;4978594;28;20101;-65
2023/01/23 02:16:39;;;;;;;22.38;12.93;;;;;;;2.49;94.42;103445.72;4996305;28;20032;-65
2023/01/23 02:19:17;;;;;;;26.05;13.18;;;;;;;2.49;94.78;103445.72;4996187;28;20419;-65
2023/01/23 02:21:46;;;;;;;28.90;14.35;;;;;;;2.44;94.52;103452.22;4995849;28;20030;-65
2023/01/23 02:24:21;;;;;;;23.88;13.13;;;;;;;2.46;94.50;103450.69;4996011;28;20372;-65
2023/01/23 02:26:46;;;;;;;29.30;14.07;;;;;;;2.46;94.24;103456.81;4995814;28;20114;-65
2023/01/23 02:29:14;;;;;;;25.65;13.40;;;;;;;2.49;95.08;103446.63;4995867;28;20026;-65
2023/01/23 02:31:41;;;;;;;25.95;12.77;;;;;;;2.47;94.95;103445.56;4995750;28;20403;-65
2023/01/23 02:34:10;;;;;;;22.17;12.88;;;;;;;2.49;94.61;103457.06;4995962;28;20040;-64
2023/01/23 02:36:36;;;;;;;24.52;12.85;;;;;;;2.51;94.69;103447.66;4995616;28;20518;-65
2023/01/23 02:39:08;;;;;;;23.65;13.32;;;;;;;2.55;94.73;103454.06;4994561;28;20034;-65
2023/01/23 02:41:38;;;;;;;25.27;13.95;;;;;;;2.56;94.59;103449.75;4995546;28;20026;-65
2023/01/23 02:44:11;;;;;;;23.63;13.18;;;;;;;2.56;94.46;103452.38;4995591;28;20065;-65
2023/01/23 02:46:36;;;;;;;24.08;13.25;;;;;;;2.58;94.58;103453.44;4995361;28;20030;-65
2023/01/23 02:49:01;;;;;;;26.40;13.30;;;;;;;2.62;94.07;103450.28;4995588;28;20102;-65
2023/01/23 02:51:27;;;;;;;19.83;12.57;;;;;;;2.62;94.28;103455.50;4995105;28;20038;-65
2023/01/23 02:53:52;;;;;;;25.40;13.35;;;;;;;2.63;94.63;103439.97;4995249;28;20034;-65
2023/01/23 02:56:18;;;;;;;21.65;12.80;;;;;;;2.64;94.42;103444.41;4995558;28;20033;-64
2023/01/23 03:01:28;;;;;;;26.77;13.35;;;;;;;2.67;94.03;103439.44;4995414;28;20069;-65
2023/01/23 03:03:57;;;;;;;21.25;12.55;;;;;;;2.68;94.33;103442.97;4995160;28;20471;-65
2023/01/23 03:06:22;;;;;;;24.35;13.48;;;;;;;2.69;94.38;103444.78;4995395;28;20026;-65
2023/01/23 03:08:48;;;;;;;26.58;13.65;;;;;;;2.69;94.58;103456.13;4977543;28;20077;-65
2023/01/23 03:11:16;;;;;;;23.75;13.60;;;;;;;2.65;94.29;103453.13;4994806;28;20431;-65
2023/01/23 03:13:42;;;;;;;23.90;14.02;;;;;;;2.62;94.07;103448.59;4995130;28;20415;-65
2023/01/23 03:16:08;;;;;;;22.85;13.25;;;;;;;2.60;94.32;103444.91;4995174;28;20142;-65
2023/01/23 03:18:33;;;;;;;23.95;14.00;;;;;;;2.61;94.97;103446.78;4995019;28;20026;-64
2023/01/23 03:21:04;;;;;;;25.48;14.38;;;;;;;2.60;94.53;103455.34;4994762;28;20045;-65
2023/01/23 03:23:29;;;;;;;24.95;13.38;;;;;;;2.61;94.90;103457.22;4994492;28;20053;-65
2023/01/23 03:25:57;;;;;;;25.88;14.02;;;;;;;2.62;94.36;103459.03;4994707;28;20030;-65
2023/01/23 03:31:13;;;;;;;22.25;13.77;;;;;;;2.68;94.88;103463.84;4994682;28;20530;-64
2023/01/23 03:33:42;;;;;;;26.13;14.18;;;;;;;2.67;94.90;103464.63;4994796;28;20046;-65
2023/01/23 03:36:11;;;;;;;25.20;13.77;;;;;;;2.65;94.78;103460.97;4994670;28;20022;-64
2023/01/23 03:38:37;;;;;;;27.38;14.40;;;;;;;2.63;94.57;103463.47;4994587;28;20026;-65
2023/01/23 03:43:47;;;;;;;23.80;13.75;;;;;;;2.60;95.32;103463.19;4994716;28;20109;-65
2023/01/23 03:46:12;;;;;;;25.38;14.35;;;;;;;2.60;95.43;103459.66;4976920;28;20050;-64
2023/01/23 03:48:38;;;;;;;31.05;14.68;;;;;;;2.60;95.50;103457.97;4994531;28;20368;-64
2023/01/23 03:51:04;;;;;;;22.30;13.48;;;;;;;2.65;95.58;103460.97;4994247;28;20112;-64
2023/01/23 03:53:29;;;;;;;28.45;14.77;;;;;;;2.64;95.32;103461.75;4994047;28;20473;-65
2023/01/23 03:55:55;;;;;;;23.67;13.68;;;;;;;2.70;95.57;103472.75;4994101;28;20250;-65
2023/01/23 03:58:20;;;;;;;27.75;14.60;;;;;;;2.72;94.67;103464.25;4994414;28;20372;-65
2023/01/23 04:00:46;;;;;;;25.90;14.05;;;;;;;2.71;95.36;103466.72;4993995;28;20479;-65
2023/01/23 04:03:11;;;;;;;22.50;13.85;;;;;;;2.73;94.91;103470.38;4994272;28;20062;-64
2023/01/23 04:05:36;;;;;;;25.40;14.40;;;;;;;2.72;95.14;103458.09;4994144;28;20048;-64
2023/01/23 04:08:02;;;;;;;25.13;13.50;;;;;;;2.75;95.23;103467.13;4994293;28;20026;-64
2023/01/23 04:10:28;;;;;;;25.15;13.70;;;;;;;2.76;95.47;103454.97;4994066;28;20077;-65
2023/01/23 04:12:53;;;;;;;24.92;13.75;;;;;;;2.80;95.61;103458.75;4993938;28;20034;-64
2023/01/23 04:15:19;;;;;;;25.70;14.27;;;;;;;2.79;94.85;103457.84;4993916;28;20026;-64
2023/01/23 04:17:44;;;;;;;26.15;14.43;;;;;;;2.79;94.62;103454.31;4993860;28;20030;-64
2023/01/23 04:20:11;;;;;;;21.73;13.60;;;;;;;2.79;94.75;103457.84;4993853;28;20054;-65
2023/01/23 04:22:36;;;;;;;26.98;14.55;;;;;;;2.79;94.65;103462.16;4993576;28;20037;-65
2023/01/23 04:25:02;;;;;;;26.15;13.68;;;;;;;2.83;95.32;103454.72;4993822;28;20030;-65
2023/01/23 04:27:27;;;;;;;23.80;13.68;;;;;;;2.82;94.56;103454.56;4993685;28;20376;-65
2023/01/23 04:29:52;;;;;;;26.13;14.13;;;;;;;2.82;94.96;103459.78;4976160;28;20096;-65
2023/01/23 04:32:18;;;;;;;24.38;14.23;;;;;;;2.81;94.55;103461.50;4993455;28;20058;-65
2023/01/23 04:34:43;;;;;;;30.85;14.57;;;;;;;2.81;94.97;103468.41;4993623;28;20070;-65
2023/01/23 04:37:09;;;;;;;30.98;14.73;;;;;;;2.80;94.86;103463.97;4992470;28;20495;-64
2023/01/23 04:39:34;;;;;;;22.00;14.23;;;;;;;2.75;94.79;103474.03;4993590;28;20502;-65
2023/01/23 04:41:59;;;;;;;28.95;15.00;;;;;;;2.72;94.61;103474.69;4993509;28;20040;-65
2023/01/23 04:44:26;;;;;;;28.50;14.65;;;;;;;2.73;95.51;103475.59;4993574;28;20027;-64
2023/01/23 04:46:52;;;;;;;26.92;14.60;;;;;;;2.77;96.14;103482.91;4993579;28;20443;-65
2023/01/23 04:49:20;;;;;;;26.15;14.35;;;;;;;2.79;95.63;103475.22;4993500;28;20499;-64
2023/01/23 04:51:47;;;;;;;29.27;15.13;;;;;;;2.77;95.39;103477.69;4993509;28;20019;-64
2023/01/23 04:54:12;;;;;;;23.23;14.68;;;;;;;2.74;95.44;103480.00;4993715;28;20057;-65
2023/01/23 04:56:38;;;;;;;28.23;14.73;;;;;;;2.76;95.65;103481.06;4993491;28;20031;-64
2023/01/23 04:59:04;;;;;;;27.48;14.80;;;;;;;2.76;95.67;103478.47;4993446;28;20030;-64
2023/01/23 05:01:29;;;;;;;24.33;14.77;;;;;;;2.74;95.19;103480.00;4994398;28;20031;-64
2023/01/23 05:03:55;;;;;;;27.52;14.65;;;;;;;2.72;96.16;103485.13;4997327;28;20088;-64
2023/01/23 05:06:20;;;;;;;27.77;15.25;;;;;;;2.73;96.17;103480.81;4997255;28;20034;-64
2023/01/23 05:08:45;;;;;;;24.80;14.25;;;;;;;2.77;95.37;103482.91;4997303;28;20046;-64
2023/01/23 05:11:11;;;;;;;28.48;14.95;;;;;;;2.76;96.10;103482.00;4997250;28;20447;-65
2023/01/23 05:13:37;;;;;;;25.85;14.52;;;;;;;2.78;95.27;103482.09;4997452;28;20037;-65
2023/01/23 05:16:03;;;;;;;26.77;14.40;;;;;;;2.78;95.67;103484.72;4997148;28;20396;-64
2023/01/23 05:18:28;;;;;;;29.73;15.18;;;;;;;2.78;95.54;103489.94;4997119;28;20218;-64
2023/01/23 05:20:53;;;;;;;26.58;14.82;;;;;;;2.77;95.64;103485.50;4996991;28;20034;-64
2023/01/23 05:23:19;;;;;;;28.17;14.95;;;;;;;2.74;95.78;103488.78;4996778;28;20379;-64
2023/01/23 05:25:45;;;;;;;26.55;15.50;;;;;;;2.74;96.20;103490.47;4996929;28;20030;-64
2023/01/23 05:28:10;;;;;;;28.33;15.05;;;;;;;2.74;96.06;103483.56;4997055;28;20034;-64
2023/01/23 05:30:36;;;;;;;25.05;14.65;;;;;;;2.74;95.59;103494.00;4996874;28;20029;-64
2023/01/23 05:33:01;;;;;;;28.20;14.50;;;;;;;2.74;95.81;103494.00;4996609;28;20050;-65
2023/01/23 05:35:27;;;;;;;28.33;15.32;;;;;;;2.74;96.17;103501.84;4996950;28;20030;-65
2023/01/23 05:37:53;;;;;;;29.45;15.52;;;;;;;2.74;96.23;103495.69;4996684;28;20030;-64
2023/01/23 05:40:19;;;;;;;28.70;15.13;;;;;;;2.74;95.92;103499.25;4979419;28;20045;-64
2023/01/23 05:42:46;;;;;;;27.40;14.82;;;;;;;2.73;96.36;103501.69;4996548;28;20101;-65
2023/01/23 05:45:11;;;;;;;26.00;15.45;;;;;;;2.72;96.01;103499.88;4979224;28;20031;-64
2023/01/23 05:47:37;;;;;;;25.20;14.85;;;;;;;2.72;96.40;103500.78;4996582;28;20134;-64
2023/01/23 05:50:04;;;;;;;26.27;14.63;;;;;;;2.71;96.28;103501.56;4996573;28;20033;-65
2023/01/23 05:52:30;;;;;;;26.95;15.20;;;;;;;2.70;96.35;103507.59;4996373;28;20050;-64
2023/01/23 05:54:56;;;;;;;27.02;14.60;;;;;;;2.72;96.68;103505.09;4996421;28;20451;-65
2023/01/23 05:57:22;;;;;;;29.25;15.57;;;;;;;2.69;97.66;103508.34;4996660;28;20391;-64
2023/01/23 05:59:47;;;;;;;29.63;14.90;;;;;;;2.70;96.94;103511.91;4996457;28;20031;-64
2023/01/23 06:02:13;;;;;;;29.02;15.50;;;;;;;2.79;97.13;103517.00;4996182;28;20390;-65
2023/01/23 06:04:38;;;;;;;30.42;15.48;;;;;;;2.83;97.38;103520.00;4996392;28;20029;-65
2023/01/23 06:07:04;;;;;;;26.98;15.32;;;;;;;2.86;96.43;103517.63;4996204;28;20038;-65
2023/01/23 06:09:29;;;;;;;27.30;15.63;;;;;;;2.89;96.69;103535.25;4996306;28;20070;-65
2023/01/23 06:11:54;;;;;;;26.25;14.73;;;;;;;2.91;96.56;103526.78;4995913;28;20042;-65
2023/01/23 06:14:20;;;;;;;25.55;14.68;;;;;;;2.91;96.30;103518.94;4996231;28;20031;-65
2023/01/23 06:16:45;;;;;;;27.25;15.48;;;;;;;2.89;96.35;103520.50;4996176;28;20109;-65
2023/01/23 06:19:11;;;;;;;30.73;15.35;;;;;;;2.91;96.87;103525.84;4996139;28;20037;-65
2023/01/23 06:21:36;;;;;;;30.45;15.77;;;;;;;2.93;96.39;103533.03;4995736;28;20033;-65
2023/01/23 06:24:02;;;;;;;30.17;16.10;;;;;;;2.94;96.25;103529.63;4978444;28;20042;-65
2023/01/23 06:26:27;;;;;;;29.05;15.35;;;;;;;2.93;95.82;103526.91;4978500;28;20550;-64
2023/01/23 06:28:53;;;;;;;22.60;14.07;;;;;;;2.95;96.50;103536.66;4978384;28;20081;-65
2023/01/23 06:31:18;;;;;;;29.08;14.68;;;;;;;2.97;96.08;103526.38;4978223;28;20031;-65
2023/01/23 06:33:49;;;;;;;25.08;14.88;;;;;;;3.01;96.65;103531.97;4995748;28;20085;-65
2023/01/23 06:36:15;;;;;;;28.10;14.93;;;;;;;3.04;96.45;103525.19;4995652;28;20026;-65
2023/01/23 06:38:40;;;;;;;26.02;15.43;;;;;;;3.06;96.36;103532.38;4995698;28;20089;-65
2023/01/23 06:41:07;;;;;;;30.35;17.58;;;;;;;3.09;96.27;103527.41;4995797;28;20041;-65
2023/01/23 06:43:34;;;;;;;27.58;15.20;;;;;;;3.08;96.13;103532.50;4995613;28;20026;-65
2023/01/23 06:45:59;;;;;;;23.98;15.32;;;;;;;3.05;96.56;103529.66;4995487;28;20057;-65
2023/01/23 06:48:24;;;;;;;27.95;15.40;;;;;;;3.04;95.90;103533.97;4995695;28;20519;-64
2023/01/23 06:50:50;;;;;;;27.40;16.70;;;;;;;3.07;96.57;103528.06;4995492;28;20085;-65
2023/01/23 06:53:16;;;;;;;27.27;14.57;;;;;;;3.05;96.00;103538.38;4977626;28;20030;-65
2023/01/23 06:55:41;;;;;;;27.25;14.32;;;;;;;3.07;96.22;103534.19;4995517;28;20109;-65
2023/01/23 06:58:07;;;;;;;25.95;14.80;;;;;;;3.05;95.72;103538.38;4995538;28;20026;-64
2023/01/23 07:00:35;;;;;;;23.52;14.75;;;;;;;3.06;95.80;103545.44;4995448;28;20448;-65
2023/01/23 07:03:04;;;;;;;26.60;14.75;;;;;;;3.02;96.21;103548.56;4995231;28;20034;-64
2023/01/23 07:05:30;;;;;;;31.20;15.07;;;;;;;2.99;95.99;103545.69;4995094;28;20077;-65
2023/01/23 07:07:56;;;;;;;26.95;14.60;;;;;;;2.98;96.24;103547.38;4995101;28;20496;-65
2023/01/23 07:10:22;;;;;;;25.80;15.32;;;;;;;2.98;95.85;103554.31;4995078;28;20392;-65
2023/01/23 07:12:49;;;;;;;22.10;14.15;;;;;;;3.00;96.41;103553.69;4995102;28;20030;-65
2023/01/23 07:15:15;;;;;;;25.83;14.85;;;;;;;2.99;96.35;103550.91;4995277;28;20026;-64
2023/01/23 07:17:40;;;;;;;24.70;14.90;;;;;;;3.00;96.17;103560.59;4994930;28;20030;-65
2023/01/23 07:20:07;;;;;;;28.13;15.80;;;;;;;2.98;95.90;103552.59;4994884;28;20033;-65
2023/01/23 07:22:32;;;;;;;30.02;15.90;;;;;;;2.99;96.48;103564.88;4994467;28;20073;-65
2023/01/23 07:24:57;;;;;;;26.60;15.43;;;;;;;2.99;96.83;103557.03;4994258;28;20022;-65
2023/01/23 07:27:23;;;;;;;30.55;15.75;;;;;;;3.01;96.59;103557.19;4994653;28;20026;-66
2023/01/23 07:29:48;;;;;;;24.48;14.73;;;;;;;3.00;96.58;103571.03;4994630;28;20030;-65
2023/01/23 07:32:13;;;;;;;25.63;15.85;;;;;;;2.99;96.34;103572.72;4976947;28;20097;-65
2023/01/23 07:34:39;;;;;;;25.17;15.68;;;;;;;2.99;96.17;103570.09;4994638;28;20062;-65
2023/01/23 07:37:04;;;;;;;25.55;14.70;;;;;;;3.01;96.42;103572.88;4994549;28;20030;-64
2023/01/23 07:39:30;;;;;;;28.27;15.80;;;;;;;3.02;96.15;103582.53;4994598;28;20033;-65
2023/01/23 07:41:55;;;;;;;25.85;16.27;;;;;;;3.06;96.52;103581.09;4994355;28;20034;-65
2023/01/23 07:44:21;;;;;;;27.75;15.85;;;;;;;3.05;96.59;103589.72;4994378;28;20026;-66
2023/01/23 07:46:48;;;;;;;29.00;16.23;;;;;;;3.05;96.52;103588.03;4976933;28;20516;-65
2023/01/23 07:49:14;;;;;;;27.90;16.08;;;;;;;3.05;96.13;103588.03;4994235;28;20394;-65
2023/01/23 07:51:39;;;;;;;28.80;16.08;;;;;;;3.08;97.03;103584.72;4994043;28;20483;-65
2023/01/23 07:54:05;;;;;;;27.50;15.95;;;;;;;3.10;96.01;103591.03;4994274;28;20026;-65
2023/01/23 07:56:31;;;;;;;25.50;15.65;;;;;;;3.11;96.32;103593.75;4994286;28;20030;-65
2023/01/23 07:58:57;;;;;;;26.38;15.27;;;;;;;3.11;96.62;103598.97;4994420;28;20034;-65
2023/01/23 08:01:23;;;;;;;24.58;13.57;;;;;;;3.12;95.72;103599.88;4994388;28;20041;-65
2023/01/23 08:03:48;;;;;;;26.35;15.05;;;;;;;3.11;95.76;103603.28;4994164;28;20110;-65
2023/01/23 08:06:14;;;;;;;27.55;15.25;;;;;;;3.10;96.30;103602.38;4994213;28;20023;-65
2023/01/23 08:08:39;;;;;;;25.42;14.25;;;;;;;3.11;96.10;103608.50;4994486;28;20483;-65
2023/01/23 08:11:09;;;;;;;24.02;14.02;;;;;;;3.13;96.10;103601.75;4994050;28;20118;-65
2023/01/23 08:13:35;;;;;;;22.35;14.02;;;;;;;3.13;96.58;103594.81;4994056;28;20022;-65
2023/01/23 08:16:01;;;;;;;22.30;13.80;;;;;;;3.16;96.30;103607.19;4994155;28;20034;-65
2023/01/23 08:18:28;;;;;;;24.10;14.60;;;;;;;3.16;96.24;103609.81;4993947;28;20472;-65
2023/01/23 08:20:59;;;;;;;24.33;14.40;;;;;;;3.17;95.66;103606.41;4993872;28;20018;-65
2023/01/23 08:23:26;;;;;;;24.25;14.13;;;;;;;3.19;96.44;103611.00;4993622;28;20399;-65
2023/01/23 08:25:53;;;;;;;24.17;13.95;;;;;;;3.23;95.68;103612.19;4993721;28;20081;-65
2023/01/23 08:28:19;;;;;;;21.52;14.07;;;;;;;3.26;96.30;103608.13;4993822;28;20110;-65
2023/01/23 08:30:45;;;;;;;24.02;13.65;;;;;;;3.28;96.22;103613.47;4976341;28;20040;-65
2023/01/23 08:33:10;;;;;;;22.10;13.93;;;;;;;3.30;95.85;103611.94;4993565;28;20129;-65
2023/01/23 08:35:36;;;;;;;32.10;14.70;;;;;;;3.33;95.81;103619.09;4993685;28;20050;-65
2023/01/23 08:38:02;;;;;;;23.70;14.18;;;;;;;3.34;95.58;103621.84;4992785;28;20030;-65
2023/01/23 08:40:28;;;;;;;23.92;13.65;;;;;;;3.37;95.97;103626.41;4993569;28;20479;-65
2023/01/23 08:42:53;;;;;;;29.17;14.38;;;;;;;3.35;95.80;103626.28;4975973;28;20026;-65
2023/01/23 08:45:19;;;;;;;20.70;13.50;;;;;;;3.33;95.28;103622.63;4993686;28;20045;-65
2023/01/23 08:47:45;;;;;;;24.95;14.60;;;;;;;3.30;95.86;103619.75;4993789;28;20046;-65
2023/01/23 08:50:10;;;;;;;23.20;14.57;;;;;;;3.30;95.83;103631.88;4993599;28;20423;-65
2023/01/23 08:52:36;;;;;;;23.13;13.68;;;;;;;3.28;95.97;103630.84;4993590;28;20387;-65
2023/01/23 08:55:01;;;;;;;25.05;15.20;;;;;;;3.28;95.69;103625.63;4993783;28;20387;-65
2023/01/23 08:57:27;;;;;;;21.95;13.85;;;;;;;3.28;95.19;103633.47;4993540;28;20468;-65
2023/01/23 08:59:52;;;;;;;25.42;14.00;;;;;;;3.31;95.46;103637.25;4993575;28;20108;-65
2023/01/23 09:02:18;;;;;;;24.52;14.45;;;;;;;3.34;95.80;103631.34;4993547;28;20029;-65
2023/01/23 09:04:43;;;;;;;23.27;13.65;;;;;;;3.38;95.73;103630.84;4993386;28;20038;-65
2023/01/23 09:07:08;;;;;;;23.48;14.30;;;;;;;3.39;95.81;103628.38;4993463;28;20034;-65
2023/01/23 09:09:34;;;;;;;25.95;15.75;;;;;;;3.40;95.43;103634.50;4993352;28;20475;-65
2023/01/23 09:11:59;;;;;;;22.95;13.60;;;;;;;3.42;95.79;103636.44;4993279;28;20058;-65
2023/01/23 09:14:25;;;;;;;23.17;13.43;;;;;;;3.48;95.78;103629.16;4993323;28;20031;-65
2023/01/23 09:16:50;;;;;;;23.92;14.00;;;;;;;3.51;95.28;103638.94;4993444;28;20432;-65
2023/01/23 09:19:15;;;;;;;21.17;14.23;;;;;;;3.54;95.05;103636.59;4993424;28;20026;-66
2023/01/23 09:21:41;;;;;;;24.92;14.38;;;;;;;3.61;95.07;103638.03;4992871;28;20027;-64
2023/01/23 09:24:07;;;;;;;25.13;14.50;;;;;;;3.59;94.35;103631.72;4993282;28;20053;-65
2023/01/23 09:26:32;;;;;;;20.85;13.98;;;;;;;3.59;95.07;103629.13;4993473;28;20027;-65
2023/01/23 09:28:58;;;;;;;21.27;13.63;;;;;;;3.58;94.53;103624.69;4993347;28;20353;-65
2023/01/23 09:31:23;;;;;;;22.95;14.55;;;;;;;3.57;94.77;103621.16;4993030;28;20057;-65
2023/01/23 09:33:50;;;;;;;21.27;13.90;;;;;;;3.61;93.97;103614.50;4993079;28;20062;-65
2023/01/23 09:36:15;;;;;;;22.35;14.10;;;;;;;3.66;94.83;103616.69;4993260;28;20042;-65
2023/01/23 09:38:40;;;;;;;26.27;16.48;;;;;;;3.72;95.05;103613.66;4993177;28;20029;-65
2023/01/23 09:41:19;;;;;;;23.60;14.18;;;;;;;3.79;95.08;103629.09;4992949;28;20022;-65
2023/01/23 09:43:52;;;;;;;22.58;13.95;;;;;;;3.79;94.01;103629.09;4992967;28;20026;-65
2023/01/23 09:46:37;;;;;;;24.05;13.68;;;;;;;3.82;94.32;103631.06;4993096;28;20069;-65
2023/01/23 09:49:26;;;;;;;22.25;13.65;;;;;;;3.83;94.40;103639.00;4996051;28;20480;-65
2023/01/23 09:52:09;;;;;;;20.13;12.88;;;;;;;3.82;94.07;103637.19;4995918;28;20034;-65
2023/01/23 09:54:45;;;;;;;23.77;13.52;;;;;;;3.83;94.37;103645.94;4996595;28;20395;-65
2023/01/23 09:57:24;;;;;;;22.45;13.27;;;;;;;3.87;94.53;103654.19;4996601;28;20057;-65
2023/01/23 10:00:24;;;;;;;20.70;13.25;;;;;;;3.90;93.96;103653.53;4997064;28;20174;-65
2023/01/23 10:02:52;;;;;;;23.58;12.65;;;;;;;3.90;93.85;103651.81;4985439;28;20050;-65
2023/01/23 10:05:24;;;;;;;20.42;13.15;;;;;;;3.90;93.43;103658.75;4996640;28;20045;-65
2023/01/23 10:08:03;;;;;;;21.60;12.80;;;;;;;3.90;92.97;103650.91;4996528;28;20487;-65
2023/01/23 10:10:44;;;;;;;22.02;13.25;;;;;;;3.86;93.58;103651.44;4978796;28;20037;-65
2023/01/23 10:13:17;;;;;;;20.13;12.68;;;;;;;3.91;93.73;103650.13;4996501;28;20058;-65
2023/01/23 10:16:08;;;;;;;;;;;;;;;3.97;93.71;103648.00;4996552;28;20034;-65
2023/01/23 10:18:53;;;;;;;24.48;12.95;;;;;;;3.88;93.32;103645.53;4996099;28;20379;-65
2023/01/23 10:21:50;;;;;;;21.63;12.57;;;;;;;3.87;93.75;103650.66;4995963;28;20428;-65
2023/01/23 10:24:47;;;;;;;22.45;13.55;;;;;;;3.88;93.35;103656.00;4996027;28;20073;-65
2023/01/23 10:27:37;;;;;;;24.50;13.43;;;;;;;3.90;94.51;103657.06;4996208;28;20026;-66
2023/01/23 10:30:15;;;;;;;24.65;13.18;;;;;;;3.91;94.17;103657.97;4995799;28;20061;-65
2023/01/23 10:32:54;;;;;;;26.05;13.68;;;;;;;3.94;93.75;103658.19;4995542;28;20065;-65
2023/01/23 10:35:54;;;;;;;23.13;13.60;;;;;;;3.97;92.82;103659.38;4996063;28;20038;-66
2023/01/23 10:38:47;;;;;;;23.75;13.13;;;;;;;4.02;92.84;103657.13;4992672;28;20121;-65
2023/01/23 10:41:21;;;;;;;22.73;13.32;;;;;;;4.02;92.38;103654.50;4995606;28;20038;-65
2023/01/23 10:43:49;;;;;;;23.40;12.90;;;;;;;4.05;92.76;103651.25;4995804;28;20027;-65
2023/01/23 10:46:36;;;;;;;20.95;12.35;;;;;;;4.05;93.03;103646.03;4995507;28;20522;-65
2023/01/23 10:49:03;;;;;;;19.00;11.77;;;;;;;4.05;92.78;103651.25;4995892;28;20125;-65
2023/01/23 10:51:44;;;;;;;22.63;13.73;;;;;;;4.08;92.55;103654.13;4995496;28;20073;-65
2023/01/23 10:54:17;;;;;;;21.33;12.68;;;;;;;4.09;92.41;103656.88;4995160;28;20037;-65
2023/01/23 10:56:54;;;;;;;21.90;12.20;;;;;;;4.11;92.89;103649.13;4995417;28;20035;-65
2023/01/23 10:59:30;;;;;;;23.58;12.82;;;;;;;4.16;92.46;103647.81;4994320;28;20054;-65
2023/01/23 11:01:57;;;;;;;20.42;12.65;;;;;;;4.15;91.71;103648.59;4995222;28;20105;-65
2023/01/23 11:04:25;;;;;;;19.92;13.07;;;;;;;4.14;92.14;103647.69;4995109;28;20117;-65
2023/01/23 11:07:00;;;;;;;20.90;13.75;;;;;;;4.17;92.20;103647.94;4977855;28;20547;-65
2023/01/23 11:09:26;;;;;;;20.27;12.57;;;;;;;4.22;91.89;103645.69;4995121;28;20030;-65
2023/01/23 11:12:05;;;;;;;18.33;11.65;;;;;;;4.28;91.36;103643.56;4994689;28;20041;-65
2023/01/23 11:14:32;;;;;;;20.13;12.88;;;;;;;4.21;90.53;103639.56;4995355;28;20018;-65
2023/01/23 11:17:14;;;;;;;23.23;12.75;;;;;;;4.21;90.83;103647.41;4995070;28;20506;-65
2023/01/23 11:19:41;;;;;;;17.63;11.80;;;;;;;4.25;91.72;103643.34;4995031;28;20026;-65
2023/01/23 11:22:24;;;;;;;22.77;12.48;;;;;;;4.27;91.47;103641.75;4994576;28;20288;-65
2023/01/23 11:24:50;;;;;;;21.13;12.95;;;;;;;4.29;91.06;103642.78;4994924;28;20468;-65
2023/01/23 11:27:25;;;;;;;20.08;12.70;;;;;;;4.34;91.44;103646.69;4994847;28;20034;-66
2023/01/23 11:30:05;;;;;;;21.75;12.35;;;;;;;4.34;90.64;103651.03;4994854;28;20030;-65